Terminal Aerodrome Forecast
Issued by NWS

Home | Current Version | Previous Version | Text Only | Print | Product List | Glossary On
Versions: 1 2 3 4 5 6 7 8 9 10 11 12 13 14 15 16 17 18 19
000
FTAK31 PAJN 281223 AAA
TAFASI
TAF AMD
PASI 281223Z 2812/2912 25012KT 6SM -SHRA BR BKN012 OVC025
     FM281400 22008KT P6SM -SHRA SCT015 OVC025
     FM282000 23008KT P6SM VCSH BKN035
     FM290000 VRB04KT P6SM BKN050=

USA.gov is the U.S. government's official web portal to all federal, state and local government web resources and services.